createdAt,value
2022-11-21T00:00:58.999Z,94776
2022-11-21T00:02:07.723Z,94774
2022-11-21T00:03:16.316Z,94766
2022-11-21T00:04:26.304Z,94767
2022-11-21T00:05:34.688Z,94777
2022-11-21T00:06:43.353Z,94769
2022-11-21T00:07:53.017Z,94765
2022-11-21T00:09:01.695Z,94769
2022-11-21T00:10:10.387Z,94774
2022-11-21T00:11:19.065Z,94783
2022-11-21T00:12:28.720Z,94775
2022-11-21T00:13:38.393Z,94784
2022-11-21T00:14:47.058Z,94773
2022-11-21T00:15:55.834Z,94782
2022-11-21T00:17:05.541Z,94782
2022-11-21T00:18:14.202Z,94781
2022-11-21T00:19:23.879Z,94777
2022-11-21T00:20:33.551Z,94776
2022-11-21T00:21:43.307Z,94781
2022-11-21T00:22:52.994Z,94796
2022-11-21T00:24:02.647Z,94780
2022-11-21T00:25:11.360Z,94771
2022-11-21T00:26:21.063Z,94770
2022-11-21T00:27:30.004Z,94780
2022-11-21T00:28:39.693Z,94774
2022-11-21T00:29:49.366Z,94779
2022-11-21T00:30:59.027Z,94771
2022-11-21T00:32:08.828Z,94785
2022-11-21T00:33:18.558Z,94773
2022-11-21T00:34:27.522Z,94776
2022-11-21T00:35:36.939Z,94768
2022-11-21T00:36:45.604Z,94775
2022-11-21T00:37:54.276Z,94771
2022-11-21T00:39:03.994Z,94771
2022-11-21T00:40:12.649Z,94773
2022-11-21T00:41:22.312Z,94785
2022-11-21T00:42:30.004Z,94772
2022-11-21T00:43:38.657Z,94760
2022-11-21T00:44:48.365Z,94758
2022-11-21T00:45:58.096Z,94765
2022-11-21T00:47:08.759Z,94759
2022-11-21T00:48:18.423Z,94761
2022-11-21T00:49:27.096Z,94763
2022-11-21T00:50:36.793Z,94765
2022-11-21T00:51:45.467Z,94757
2022-11-21T00:52:55.124Z,94757
2022-11-21T00:54:04.805Z,94753
2022-11-21T00:55:12.490Z,94749
2022-11-21T00:56:22.158Z,94754
2022-11-21T00:57:31.844Z,94746
2022-11-21T00:58:41.508Z,94753
2022-11-21T00:59:51.168Z,94748
2022-11-21T01:01:00.946Z,94750
2022-11-21T01:02:10.523Z,94746
2022-11-21T01:03:20.203Z,94754
2022-11-21T01:04:29.039Z,94755
2022-11-21T01:05:38.549Z,94754
2022-11-21T01:06:47.178Z,94749
2022-11-21T01:07:55.866Z,94752
2022-11-21T01:09:04.526Z,94761
2022-11-21T01:10:13.211Z,94755
2022-11-21T01:11:22.880Z,94748
2022-11-21T01:12:31.570Z,94755
2022-11-21T01:13:40.226Z,94752
2022-11-21T01:14:49.944Z,94744
2022-11-21T01:15:59.652Z,94743
2022-11-21T01:17:07.317Z,94749
2022-11-21T01:18:17.006Z,94752
2022-11-21T01:19:25.854Z,94759
2022-11-21T01:20:35.566Z,94756
2022-11-21T01:21:44.258Z,94752
2022-11-21T01:22:53.910Z,94751
2022-11-21T01:24:03.598Z,94762
2022-11-21T01:25:12.308Z,94756
2022-11-21T01:26:22.038Z,94757
2022-11-21T01:27:30.708Z,94759
2022-11-21T01:28:39.393Z,94755
2022-11-21T01:29:49.038Z,94749
2022-11-21T01:30:56.725Z,94750
2022-11-21T01:32:05.448Z,94750
2022-11-21T01:33:15.177Z,94746
2022-11-21T01:34:23.886Z,94745
2022-11-21T01:35:32.492Z,94743
2022-11-21T01:36:41.175Z,94747
2022-11-21T01:37:50.836Z,94741
2022-11-21T01:39:00.508Z,94747
2022-11-21T01:40:08.177Z,94740
2022-11-21T01:41:17.878Z,94742
2022-11-21T01:42:27.572Z,94743
2022-11-21T01:43:36.223Z,94739
2022-11-21T01:44:46.381Z,94744
2022-11-21T01:45:56.023Z,94755
2022-11-21T01:47:04.679Z,94739
2022-11-21T01:48:14.381Z,94740
2022-11-21T01:49:23.047Z,94743
2022-11-21T01:50:32.726Z,94738
2022-11-21T01:51:42.441Z,94747
2022-11-21T01:52:52.104Z,94740
2022-11-21T01:54:01.796Z,94742
2022-11-21T01:55:11.469Z,94741
2022-11-21T01:56:21.202Z,94741
2022-11-21T01:57:30.868Z,94734
2022-11-21T01:58:40.534Z,94740
2022-11-21T01:59:50.248Z,94736
2022-11-21T02:00:59.917Z,94732
2022-11-21T02:02:07.553Z,94730
2022-11-21T02:03:17.304Z,94732
2022-11-21T02:04:27.145Z,94726
2022-11-21T02:05:36.694Z,94715
2022-11-21T02:06:46.360Z,94717
2022-11-21T02:07:54.018Z,94721
2022-11-21T02:09:03.691Z,94708
2022-11-21T02:10:13.347Z,94711
2022-11-21T02:11:21.039Z,94714
2022-11-21T02:12:29.716Z,94712
2022-11-21T02:13:38.369Z,94712
2022-11-21T02:14:47.030Z,94706
2022-11-21T02:15:55.729Z,94699
2022-11-21T02:17:05.387Z,94698
2022-11-21T02:18:14.088Z,94695
2022-11-21T02:19:23.863Z,94701
2022-11-21T02:20:33.605Z,94694
2022-11-21T02:21:43.365Z,94695
2022-11-21T02:22:53.135Z,94693
2022-11-21T02:24:01.888Z,94696
2022-11-21T02:25:11.592Z,94692
2022-11-21T02:26:19.467Z,94692
2022-11-21T02:27:29.211Z,94686
2022-11-21T02:28:38.977Z,94690
2022-11-21T02:29:47.732Z,94698
2022-11-21T02:30:57.459Z,94693
2022-11-21T02:32:06.172Z,94698
2022-11-21T02:33:15.858Z,94689
2022-11-21T02:34:26.030Z,94681
2022-11-21T02:35:34.456Z,94691
2022-11-21T02:36:44.156Z,94672
2022-11-21T02:37:53.857Z,94680
2022-11-21T02:39:01.619Z,94681
2022-11-21T02:40:11.368Z,94682
2022-11-21T02:41:21.149Z,94668
2022-11-21T02:42:29.890Z,94676
2022-11-21T02:43:39.616Z,94666
2022-11-21T02:44:47.364Z,94668
2022-11-21T02:45:56.082Z,94667
2022-11-21T02:47:05.754Z,94667
2022-11-21T02:48:14.485Z,94658
2022-11-21T02:49:24.231Z,94662
2022-11-21T02:50:33.969Z,94661
2022-11-21T02:51:43.747Z,94663
2022-11-21T02:52:53.496Z,94661
2022-11-21T02:54:01.239Z,94665
2022-11-21T02:55:10.966Z,94670
2022-11-21T02:56:18.694Z,94672
2022-11-21T02:57:27.470Z,94676
2022-11-21T02:58:37.153Z,94686
2022-11-21T02:59:45.900Z,94680
2022-11-21T03:00:55.731Z,94678
2022-11-21T03:02:04.404Z,94668
2022-11-21T03:03:14.200Z,94685
2022-11-21T03:04:23.903Z,94669
2022-11-21T03:05:33.629Z,94676
2022-11-21T03:06:43.378Z,94670
2022-11-21T03:07:53.142Z,94671
2022-11-21T03:09:01.918Z,94669
2022-11-21T03:10:11.614Z,94668
2022-11-21T03:11:20.332Z,94664
2022-11-21T03:12:30.045Z,94660
2022-11-21T03:13:39.780Z,94667
2022-11-21T03:14:49.524Z,94661
2022-11-21T03:15:58.253Z,94662
2022-11-21T03:17:08.002Z,94659
2022-11-21T03:18:15.744Z,94655
2022-11-21T03:19:25.514Z,94652
2022-11-21T03:20:34.261Z,94652
2022-11-21T03:21:43.982Z,94648
2022-11-21T03:22:53.764Z,94646
2022-11-21T03:24:01.483Z,94643
2022-11-21T03:25:11.199Z,94648
2022-11-21T03:26:20.965Z,94648
2022-11-21T03:27:28.658Z,94644
2022-11-21T03:28:37.400Z,94644
2022-11-21T03:29:47.183Z,94638
2022-11-21T03:30:55.964Z,94641
2022-11-21T03:32:05.734Z,94642
2022-11-21T03:33:14.419Z,94639
2022-11-21T03:34:23.111Z,94631
2022-11-21T03:35:32.845Z,94627
2022-11-21T03:36:40.541Z,94625
2022-11-21T03:37:49.385Z,94630
2022-11-21T03:38:59.140Z,94625
2022-11-21T03:40:07.911Z,94628
2022-11-21T03:41:17.605Z,94627
2022-11-21T03:42:25.359Z,94627
2022-11-21T03:43:34.045Z,94627
2022-11-21T03:44:43.764Z,94627
2022-11-21T03:45:52.526Z,94630
2022-11-21T03:47:01.269Z,94627
2022-11-21T03:48:10.989Z,94628
2022-11-21T03:49:20.784Z,94623
2022-11-21T03:50:30.493Z,94626
2022-11-21T03:51:39.286Z,94627
2022-11-21T03:52:49.048Z,94627
2022-11-21T03:53:58.780Z,94627
2022-11-21T03:55:07.728Z,94626
2022-11-21T03:56:17.404Z,94619
2022-11-21T03:57:26.148Z,94619
2022-11-21T03:58:34.981Z,94614
2022-11-21T03:59:44.656Z,94613
2022-11-21T04:00:53.429Z,94617
2022-11-21T04:02:03.130Z,94615
2022-11-21T04:03:12.862Z,94612
2022-11-21T04:04:22.648Z,94615
2022-11-21T04:05:31.382Z,94614
2022-11-21T04:06:41.154Z,94613
2022-11-21T04:07:48.895Z,94609
2022-11-21T04:08:58.705Z,94604
2022-11-21T04:10:08.481Z,94612
2022-11-21T04:11:17.271Z,94606
2022-11-21T04:12:27.044Z,94613
2022-11-21T04:13:35.737Z,94604
2022-11-21T04:14:46.432Z,94606
2022-11-21T04:15:55.137Z,94608
2022-11-21T04:17:04.806Z,94603
2022-11-21T04:18:14.664Z,94607
2022-11-21T04:19:22.398Z,94603
2022-11-21T04:20:31.141Z,94604
2022-11-21T04:21:39.860Z,94606
2022-11-21T04:22:48.560Z,94606
2022-11-21T04:23:58.290Z,94604
2022-11-21T04:25:07.149Z,94603
2022-11-21T04:26:16.776Z,94601
2022-11-21T04:27:26.533Z,94606
2022-11-21T04:28:34.248Z,94595
2022-11-21T04:29:43.978Z,94601
2022-11-21T04:30:55.102Z,94596
2022-11-21T04:32:03.409Z,94603
2022-11-21T04:33:11.241Z,94599
2022-11-21T04:34:20.976Z,94602
2022-11-21T04:35:30.658Z,94603
2022-11-21T04:36:40.451Z,94597
2022-11-21T04:37:49.181Z,94589
2022-11-21T04:38:57.912Z,94601
2022-11-21T04:40:07.662Z,94587
2022-11-21T04:41:17.530Z,94599
2022-11-21T04:42:27.203Z,94603
2022-11-21T04:43:36.950Z,94596
2022-11-21T04:44:46.649Z,94587
2022-11-21T04:45:56.322Z,94588
2022-11-21T04:47:05.815Z,94593
2022-11-21T04:48:13.858Z,94605
2022-11-21T04:49:23.577Z,94599
2022-11-21T04:50:32.296Z,94609
2022-11-21T04:51:42.071Z,94611
2022-11-21T04:52:51.799Z,94610
2022-11-21T04:54:00.509Z,94609
2022-11-21T04:55:09.266Z,94596
2022-11-21T04:56:17.920Z,94597
2022-11-21T04:57:27.695Z,94601
2022-11-21T04:58:37.456Z,94588
2022-11-21T04:59:46.173Z,94590
2022-11-21T05:00:55.998Z,94592
2022-11-21T05:02:04.633Z,94591
2022-11-21T05:03:13.299Z,94585
2022-11-21T05:04:23.005Z,94591
2022-11-21T05:05:31.669Z,94586
2022-11-21T05:06:41.330Z,94589
2022-11-21T05:07:50.997Z,94584
2022-11-21T05:08:59.672Z,94579
2022-11-21T05:10:08.378Z,94570
2022-11-21T05:11:17.065Z,94576
2022-11-21T05:12:25.733Z,94564
2022-11-21T05:13:34.429Z,94572
2022-11-21T05:14:44.074Z,94563
2022-11-21T05:15:53.835Z,94559
2022-11-21T05:17:02.516Z,94557
2022-11-21T05:18:11.200Z,94556
2022-11-21T05:19:21.998Z,94556
2022-11-21T05:20:34.446Z,94560
2022-11-21T05:21:40.363Z,94554
2022-11-21T05:22:50.049Z,94540
2022-11-21T05:23:59.714Z,94548
2022-11-21T05:25:09.406Z,94551
2022-11-21T05:26:19.084Z,94548
2022-11-21T05:27:27.783Z,94555
2022-11-21T05:28:37.495Z,94555
2022-11-21T05:29:47.153Z,94555
2022-11-21T05:30:55.826Z,94546
2022-11-21T05:32:04.654Z,94549
2022-11-21T05:33:13.522Z,94556
2022-11-21T05:34:22.170Z,94546
2022-11-21T05:35:29.916Z,94543
2022-11-21T05:36:38.580Z,94544
2022-11-21T05:37:48.254Z,94545
2022-11-21T05:38:56.969Z,94550
2022-11-21T05:40:05.652Z,94551
2022-11-21T05:41:15.382Z,94546
2022-11-21T05:42:25.125Z,94548
2022-11-21T05:43:34.827Z,94550
2022-11-21T05:44:42.661Z,94548
2022-11-21T05:45:52.247Z,94547
2022-11-21T05:47:01.950Z,94546
2022-11-21T05:48:09.623Z,94549
2022-11-21T05:49:18.287Z,94548
2022-11-21T05:50:25.962Z,94548
2022-11-21T05:51:34.616Z,94553
2022-11-21T05:52:43.296Z,94555
2022-11-21T05:53:52.961Z,94552
2022-11-21T05:55:02.715Z,94555
2022-11-21T05:56:12.408Z,94555
2022-11-21T05:57:22.092Z,94554
2022-11-21T05:58:30.803Z,94559
2022-11-21T05:59:40.479Z,94562
2022-11-21T06:00:49.163Z,94559
2022-11-21T06:01:59.809Z,94558
2022-11-21T06:03:09.525Z,94554
2022-11-21T06:04:17.221Z,94564
2022-11-21T06:05:26.893Z,94559
2022-11-21T06:06:34.561Z,94566
2022-11-21T06:07:43.264Z,94564
2022-11-21T06:08:51.985Z,94566
2022-11-21T06:10:01.695Z,94572
2022-11-21T06:11:11.539Z,94563
2022-11-21T06:12:25.177Z,94566
2022-11-21T06:13:29.981Z,94567
2022-11-21T06:14:39.728Z,94574
2022-11-21T06:15:48.468Z,94572
2022-11-21T06:16:58.225Z,94581
2022-11-21T06:18:07.935Z,94577
2022-11-21T06:19:16.670Z,94575
2022-11-21T06:20:26.369Z,94579
2022-11-21T06:21:35.117Z,94580
2022-11-21T06:22:43.831Z,94583
2022-11-21T06:23:53.553Z,94583
2022-11-21T06:25:02.287Z,94583
2022-11-21T06:26:11.985Z,94580
2022-11-21T06:27:20.744Z,94588
2022-11-21T06:28:29.579Z,94589
2022-11-21T06:29:39.330Z,94584
2022-11-21T06:30:47.167Z,94584
2022-11-21T06:31:55.876Z,94587
2022-11-21T06:33:05.762Z,94583
2022-11-21T06:34:15.415Z,94584
2022-11-21T06:35:24.150Z,94581
2022-11-21T06:36:32.995Z,94584
2022-11-21T06:37:42.763Z,94582
2022-11-21T06:38:53.469Z,94581
2022-11-21T06:40:01.204Z,94587
2022-11-21T06:41:10.994Z,94580
2022-11-21T06:42:20.751Z,94590
2022-11-21T06:43:29.490Z,94584
2022-11-21T06:44:38.247Z,94592
2022-11-21T06:45:48.104Z,94586
2022-11-21T06:46:57.865Z,94586
2022-11-21T06:48:07.627Z,94588
2022-11-21T06:49:16.417Z,94590
2022-11-21T06:50:26.134Z,94592
2022-11-21T06:51:35.840Z,94596
2022-11-21T06:52:45.552Z,94602
2022-11-21T06:53:54.339Z,94602
2022-11-21T06:55:04.106Z,94598
2022-11-21T06:56:13.858Z,94608
2022-11-21T06:57:23.622Z,94607
2022-11-21T06:58:33.377Z,94609
2022-11-21T06:59:43.120Z,94607
2022-11-21T07:00:51.904Z,94613
2022-11-21T07:02:01.616Z,94623
2022-11-21T07:03:11.310Z,94608
2022-11-21T07:04:21.019Z,94615
2022-11-21T07:05:29.753Z,94619
2022-11-21T07:06:39.468Z,94613
2022-11-21T07:07:48.190Z,94615
2022-11-21T07:09:25.763Z,94618
2022-11-21T07:10:08.603Z,94619
2022-11-21T07:11:25.943Z,94614
2022-11-21T07:12:29.189Z,94620
2022-11-21T07:13:37.928Z,94614
2022-11-21T07:14:47.637Z,94618
2022-11-21T07:15:56.378Z,94616
2022-11-21T07:17:06.209Z,94617
2022-11-21T07:18:15.971Z,94617
2022-11-21T07:19:23.788Z,94617
2022-11-21T07:20:32.440Z,94625
2022-11-21T07:21:42.197Z,94622
2022-11-21T07:22:49.993Z,94639
2022-11-21T07:23:59.736Z,94630
2022-11-21T07:25:09.519Z,94627
2022-11-21T07:26:18.230Z,94634
2022-11-21T07:27:27.975Z,94633
2022-11-21T07:28:36.770Z,94636
2022-11-21T07:29:46.481Z,94639
2022-11-21T07:30:56.215Z,94630
2022-11-21T07:32:03.945Z,94638
2022-11-21T07:33:13.729Z,94632
2022-11-21T07:34:23.609Z,94624
2022-11-21T07:35:33.381Z,94631
2022-11-21T07:36:43.110Z,94631
2022-11-21T07:37:52.865Z,94635
2022-11-21T07:39:01.611Z,94640
2022-11-21T07:40:11.403Z,94637
2022-11-21T07:41:20.200Z,94640
2022-11-21T07:42:29.911Z,94640
2022-11-21T07:43:39.638Z,94642
2022-11-21T07:44:48.342Z,94640
2022-11-21T07:45:58.114Z,94651
2022-11-21T07:47:07.841Z,94646
2022-11-21T07:48:16.612Z,94649
2022-11-21T07:49:26.856Z,94649
2022-11-21T07:50:34.083Z,94643
2022-11-21T07:51:43.890Z,94648
2022-11-21T07:52:53.713Z,94649
2022-11-21T07:54:02.520Z,94648
2022-11-21T07:55:12.258Z,94650
2022-11-21T07:56:21.959Z,94654
2022-11-21T07:57:30.706Z,94655
2022-11-21T07:58:40.480Z,94655
2022-11-21T07:59:50.244Z,94659
2022-11-21T08:01:00.000Z,94652
2022-11-21T08:02:08.822Z,94659
2022-11-21T08:03:17.518Z,94650
2022-11-21T08:04:27.251Z,94660
2022-11-21T08:05:35.083Z,94655
2022-11-21T08:06:44.766Z,94657
2022-11-21T08:07:54.547Z,94654
2022-11-21T08:09:04.283Z,94658
2022-11-21T08:10:12.999Z,94659
2022-11-21T08:11:20.746Z,94660
2022-11-21T08:12:29.498Z,94670
2022-11-21T08:13:39.269Z,94667
2022-11-21T08:14:48.034Z,94661
2022-11-21T08:15:56.752Z,94661
2022-11-21T08:17:06.501Z,94662
2022-11-21T08:18:15.277Z,94672
2022-11-21T08:19:24.004Z,94667
2022-11-21T08:20:33.789Z,94673
2022-11-21T08:21:43.518Z,94669
2022-11-21T08:22:53.248Z,94677
2022-11-21T08:24:02.025Z,94669
2022-11-21T08:25:10.739Z,94668
2022-11-21T08:26:20.532Z,94661
2022-11-21T08:27:30.277Z,94672
2022-11-21T08:28:39.003Z,94667
2022-11-21T08:29:47.745Z,94668
2022-11-21T08:30:56.436Z,94677
2022-11-21T08:32:06.255Z,94675
2022-11-21T08:33:16.660Z,94676
2022-11-21T08:34:25.381Z,94674
2022-11-21T08:35:35.156Z,94678
2022-11-21T08:36:44.885Z,94681
2022-11-21T08:37:53.700Z,94675
2022-11-21T08:39:03.464Z,94677
2022-11-21T08:40:13.169Z,94681
2022-11-21T08:41:22.883Z,94671
2022-11-21T08:42:31.674Z,94669
2022-11-21T08:43:41.523Z,94672
2022-11-21T08:44:51.285Z,94673
2022-11-21T08:45:58.977Z,94674
2022-11-21T08:47:08.748Z,94668
2022-11-21T08:48:17.480Z,94674
2022-11-21T08:49:27.166Z,94669
2022-11-21T08:50:36.891Z,94676
2022-11-21T08:51:46.808Z,94667
2022-11-21T08:52:56.522Z,94672
2022-11-21T08:54:05.209Z,94675
2022-11-21T08:55:13.951Z,94673
2022-11-21T08:56:23.708Z,94671
2022-11-21T08:57:32.392Z,94671
2022-11-21T08:58:41.149Z,94671
2022-11-21T08:59:50.810Z,94672
2022-11-21T09:00:59.546Z,94672
2022-11-21T09:02:09.290Z,94664
2022-11-21T09:03:22.319Z,94666
2022-11-21T09:04:28.988Z,94663
2022-11-21T09:05:38.518Z,94667
2022-11-21T09:06:48.017Z,94660
2022-11-21T09:07:57.041Z,94664
2022-11-21T09:09:05.750Z,94658
2022-11-21T09:10:15.708Z,94665
2022-11-21T09:11:25.384Z,94657
2022-11-21T09:12:34.189Z,94659
2022-11-21T09:13:42.871Z,94660
2022-11-21T09:14:52.585Z,94665
2022-11-21T09:16:02.300Z,94666
2022-11-21T09:17:11.031Z,94661
2022-11-21T09:18:20.782Z,94662
2022-11-21T09:19:30.917Z,94668
2022-11-21T09:20:40.446Z,94672
2022-11-21T09:21:49.101Z,94676
2022-11-21T09:22:57.773Z,94678
2022-11-21T09:24:07.530Z,94665
2022-11-21T09:25:15.247Z,94680
2022-11-21T09:26:24.029Z,94666
2022-11-21T09:27:31.764Z,94660
2022-11-21T09:28:41.519Z,94664
2022-11-21T09:29:54.172Z,94660
2022-11-21T09:31:01.929Z,94659
2022-11-21T09:32:11.690Z,94662
2022-11-21T09:33:21.377Z,94658
2022-11-21T09:34:30.488Z,94665
2022-11-21T09:35:39.882Z,94665
2022-11-21T09:36:49.585Z,94669
2022-11-21T09:37:59.314Z,94663
2022-11-21T09:39:09.030Z,94675
2022-11-21T09:40:16.704Z,94664
2022-11-21T09:41:26.551Z,94663
2022-11-21T09:42:36.257Z,94666
2022-11-21T09:43:45.958Z,94665
2022-11-21T09:44:56.661Z,94667
2022-11-21T09:46:05.389Z,94662
2022-11-21T09:47:14.191Z,94660
2022-11-21T09:48:23.915Z,94660
2022-11-21T09:49:33.666Z,94650
2022-11-21T09:50:42.370Z,94656
2022-11-21T09:51:53.064Z,94650
2022-11-21T09:53:00.877Z,94652
2022-11-21T09:54:09.533Z,94639
2022-11-21T09:55:19.328Z,94641
2022-11-21T09:56:29.007Z,94640
2022-11-21T09:57:38.704Z,94647
2022-11-21T09:58:47.445Z,94634
2022-11-21T09:59:57.208Z,94639
2022-11-21T10:01:06.960Z,94633
2022-11-21T10:02:15.633Z,94641
2022-11-21T10:03:24.336Z,94633
2022-11-21T10:04:33.079Z,94627
2022-11-21T10:05:41.764Z,94628
2022-11-21T10:06:51.478Z,94645
2022-11-21T10:07:59.155Z,94640
2022-11-21T10:09:07.881Z,94639
2022-11-21T10:10:17.588Z,94643
2022-11-21T10:11:26.301Z,94635
2022-11-21T10:12:34.027Z,94638
2022-11-21T10:13:42.739Z,94628
2022-11-21T10:14:52.469Z,94637
2022-11-21T10:16:02.217Z,94632
2022-11-21T10:17:11.888Z,94640
2022-11-21T10:18:21.609Z,94632
2022-11-21T10:19:31.302Z,94631
2022-11-21T10:20:40.114Z,94628
2022-11-21T10:21:48.810Z,94626
2022-11-21T10:22:58.522Z,94622
2022-11-21T10:24:08.294Z,94625
2022-11-21T10:25:19.080Z,94624
2022-11-21T10:26:28.670Z,94627
2022-11-21T10:27:38.438Z,94618
2022-11-21T10:28:48.147Z,94623
2022-11-21T10:29:56.855Z,94616
2022-11-21T10:31:06.620Z,94628
2022-11-21T10:32:15.284Z,94620
2022-11-21T10:33:24.054Z,94627
2022-11-21T10:34:33.774Z,94622
2022-11-21T10:35:43.477Z,94614
2022-11-21T10:36:52.208Z,94613
2022-11-21T10:38:01.920Z,94609
2022-11-21T10:39:09.641Z,94607
2022-11-21T10:40:18.441Z,94598
2022-11-21T10:41:27.054Z,94593
2022-11-21T10:42:35.772Z,94589
2022-11-21T10:43:45.444Z,94595
2022-11-21T10:44:54.258Z,94600
2022-11-21T10:46:03.938Z,94598
2022-11-21T10:47:13.657Z,94595
2022-11-21T10:48:22.342Z,94597
2022-11-21T10:49:32.120Z,94594
2022-11-21T10:50:40.905Z,94591
2022-11-21T10:51:49.626Z,94599
2022-11-21T10:52:58.330Z,94600
2022-11-21T10:54:08.289Z,94596
2022-11-21T10:55:17.700Z,94600
2022-11-21T10:56:27.464Z,94597
2022-11-21T10:57:36.166Z,94593
2022-11-21T10:58:45.846Z,94586
2022-11-21T10:59:54.557Z,94591
2022-11-21T11:01:04.364Z,94588
2022-11-21T11:02:14.143Z,94593
2022-11-21T11:03:23.835Z,94590
2022-11-21T11:04:41.795Z,94590
2022-11-21T11:05:44.215Z,94584
2022-11-21T11:06:53.911Z,94579
2022-11-21T11:08:03.690Z,94585
2022-11-21T11:09:12.362Z,94569
2022-11-21T11:10:25.755Z,94569
2022-11-21T11:11:31.686Z,94568
2022-11-21T11:12:40.401Z,94564
2022-11-21T11:13:50.783Z,94562
2022-11-21T11:14:59.803Z,94560
2022-11-21T11:16:08.545Z,94563
2022-11-21T11:17:18.303Z,94555
2022-11-21T11:18:27.043Z,94553
2022-11-21T11:19:40.244Z,94558
2022-11-21T11:20:47.413Z,94555
2022-11-21T11:21:56.080Z,94545
2022-11-21T11:23:05.771Z,94547
2022-11-21T11:24:13.432Z,94542
2022-11-21T11:25:23.164Z,94542
2022-11-21T11:26:32.863Z,94539
2022-11-21T11:27:41.568Z,94541
2022-11-21T11:28:50.286Z,94543
2022-11-21T11:29:58.973Z,94540
2022-11-21T11:31:07.714Z,94537
2022-11-21T11:32:21.093Z,94533
2022-11-21T11:33:27.049Z,94530
2022-11-21T11:34:36.738Z,94523
2022-11-21T11:35:47.409Z,94520
2022-11-21T11:36:55.110Z,94519
2022-11-21T11:38:04.823Z,94520
2022-11-21T11:39:13.543Z,94521
2022-11-21T11:40:23.281Z,94520
2022-11-21T11:41:32.960Z,94513
2022-11-21T11:42:42.692Z,94522
2022-11-21T11:43:52.397Z,94518
2022-11-21T11:45:02.089Z,94508
2022-11-21T11:46:10.790Z,94506
2022-11-21T11:47:19.451Z,94502
2022-11-21T11:48:29.307Z,94505
2022-11-21T11:49:40.005Z,94504
2022-11-21T11:50:49.679Z,94501
2022-11-21T11:51:57.366Z,94500
2022-11-21T11:53:06.078Z,94499
2022-11-21T11:54:15.831Z,94499
2022-11-21T11:55:25.554Z,94499
2022-11-21T11:56:35.301Z,94494
2022-11-21T11:57:43.971Z,94503
2022-11-21T11:58:52.637Z,94505
2022-11-21T12:00:02.440Z,94503
2022-11-21T12:01:11.106Z,94500
2022-11-21T12:02:19.839Z,94506
2022-11-21T12:03:29.495Z,94505
2022-11-21T12:04:38.220Z,94500
2022-11-21T12:05:48.040Z,94498
2022-11-21T12:07:54.327Z,94507
2022-11-21T12:09:19.119Z,94502
2022-11-21T12:10:26.843Z,94505
2022-11-21T12:11:35.598Z,94508
2022-11-21T12:12:45.305Z,94501
2022-11-21T12:13:53.992Z,94505
2022-11-21T12:15:03.710Z,94499
2022-11-21T12:16:13.988Z,94496
2022-11-21T12:17:22.183Z,94495
2022-11-21T12:18:31.873Z,94496
2022-11-21T12:19:39.597Z,94489
2022-11-21T12:20:49.347Z,94487
2022-11-21T12:21:59.094Z,94483
2022-11-21T12:23:08.834Z,94484
2022-11-21T12:24:17.530Z,94474
2022-11-21T12:25:27.257Z,94468
2022-11-21T12:26:36.939Z,94472
2022-11-21T12:27:47.070Z,94467
2022-11-21T12:28:54.427Z,94465
2022-11-21T12:30:03.078Z,94460
2022-11-21T12:31:12.884Z,94453
2022-11-21T12:32:21.507Z,94449
2022-11-21T12:33:31.184Z,94453
2022-11-21T12:34:39.929Z,94448
2022-11-21T12:35:49.599Z,94443
2022-11-21T12:37:00.279Z,94442
2022-11-21T12:38:08.986Z,94436
2022-11-21T12:39:17.646Z,94440
2022-11-21T12:40:27.379Z,94446
2022-11-21T12:41:36.101Z,94440
2022-11-21T12:42:44.859Z,94435
2022-11-21T12:43:57.525Z,94428
2022-11-21T12:45:02.235Z,94431
2022-11-21T12:46:11.949Z,94427
2022-11-21T12:47:21.329Z,94426
2022-11-21T12:48:31.026Z,94424
2022-11-21T12:49:39.758Z,94423
2022-11-21T12:50:49.452Z,94425
2022-11-21T12:51:59.226Z,94427
2022-11-21T12:53:06.900Z,94421
2022-11-21T12:54:16.658Z,94423
2022-11-21T12:55:29.507Z,94420
2022-11-21T12:56:35.972Z,94415
2022-11-21T12:57:45.806Z,94406
2022-11-21T12:58:54.510Z,94409
2022-11-21T13:00:03.173Z,94413
2022-11-21T13:01:16.794Z,94422
2022-11-21T13:02:23.562Z,94420
2022-11-21T13:03:32.249Z,94411
2022-11-21T13:04:40.936Z,94407
2022-11-21T13:05:48.612Z,94403
2022-11-21T13:06:58.332Z,94398
2022-11-21T13:08:07.095Z,94392
2022-11-21T13:09:15.932Z,94392
2022-11-21T13:10:25.645Z,94387
2022-11-21T13:11:35.328Z,94391
2022-11-21T13:12:45.142Z,94388
2022-11-21T13:13:53.830Z,94384
2022-11-21T13:15:02.564Z,94381
2022-11-21T13:16:12.269Z,94384
2022-11-21T13:17:19.995Z,94384
2022-11-21T13:18:28.714Z,94381
2022-11-21T13:19:38.487Z,94377
2022-11-21T13:20:48.283Z,94379
2022-11-21T13:21:56.958Z,94375
2022-11-21T13:23:06.724Z,94370
2022-11-21T13:24:16.367Z,94366
2022-11-21T13:25:26.116Z,94362
2022-11-21T13:26:35.902Z,94369
2022-11-21T13:27:44.622Z,94377
2022-11-21T13:28:54.329Z,94373
2022-11-21T13:30:02.021Z,94368
2022-11-21T13:31:12.222Z,94361
2022-11-21T13:32:20.983Z,94365
2022-11-21T13:33:30.793Z,94359
2022-11-21T13:34:40.502Z,94358
2022-11-21T13:35:50.576Z,94363
2022-11-21T13:36:59.006Z,94367
2022-11-21T13:38:08.823Z,94363
2022-11-21T13:39:16.648Z,94361
2022-11-21T13:40:25.360Z,94360
2022-11-21T13:41:34.151Z,94355
2022-11-21T13:42:50.196Z,94351
2022-11-21T13:43:54.538Z,94356
2022-11-21T13:45:02.259Z,94350
2022-11-21T13:46:10.977Z,94354
2022-11-21T13:47:20.668Z,94355
2022-11-21T13:48:30.449Z,94351
2022-11-21T13:49:39.117Z,94349
2022-11-21T13:50:47.876Z,94345
2022-11-21T13:51:57.578Z,94344
2022-11-21T13:53:07.258Z,94343
2022-11-21T13:54:17.003Z,94340
2022-11-21T13:55:25.865Z,94337
2022-11-21T13:56:35.595Z,94336
2022-11-21T13:57:45.348Z,94331
2022-11-21T13:58:55.119Z,94335
2022-11-21T14:00:04.888Z,94332
2022-11-21T14:01:13.691Z,94326
2022-11-21T14:02:23.399Z,94319
2022-11-21T14:03:33.088Z,94319
2022-11-21T14:04:41.802Z,94315
2022-11-21T14:05:51.513Z,94315
2022-11-21T14:07:00.462Z,94320
2022-11-21T14:08:09.131Z,94314
2022-11-21T14:09:17.726Z,94315
2022-11-21T14:10:26.509Z,94311
2022-11-21T14:11:36.261Z,94314
2022-11-21T14:12:45.209Z,94314
2022-11-21T14:13:54.876Z,94308
2022-11-21T14:15:04.670Z,94309
2022-11-21T14:16:14.426Z,94307
2022-11-21T14:17:24.240Z,94308
2022-11-21T14:18:34.013Z,94306
2022-11-21T14:19:42.767Z,94302
2022-11-21T14:20:52.510Z,94298
2022-11-21T14:22:01.217Z,94298
2022-11-21T14:23:10.885Z,94309
2022-11-21T14:24:20.631Z,94307
2022-11-21T14:25:28.359Z,94309
2022-11-21T14:26:38.061Z,94307
2022-11-21T14:27:47.216Z,94302
2022-11-21T14:28:55.486Z,94304
2022-11-21T14:30:05.417Z,94302
2022-11-21T14:31:15.086Z,94301
2022-11-21T14:32:24.810Z,94294
2022-11-21T14:33:34.535Z,94293
2022-11-21T14:34:43.273Z,94291
2022-11-21T14:35:52.008Z,94290
2022-11-21T14:36:59.738Z,94290
2022-11-21T14:38:09.424Z,94286
2022-11-21T14:39:36.352Z,94282
2022-11-21T14:40:29.796Z,94281
2022-11-21T14:41:38.525Z,94285
2022-11-21T14:42:48.259Z,94283
2022-11-21T14:43:56.025Z,94278
2022-11-21T14:45:05.937Z,94274
2022-11-21T14:46:14.659Z,94274
2022-11-21T14:47:26.499Z,94273
2022-11-21T14:48:34.143Z,94271
2022-11-21T14:49:43.857Z,94266
2022-11-21T14:50:53.531Z,94261
2022-11-21T14:52:01.242Z,94265
2022-11-21T14:53:10.997Z,94267